Авиационная погода в Москве - Остафьево

Регион: 
Погода METAR: 
UUMO 271030Z 13006MPS CAVOK 17/04 Q1025 R08/090060 NOSIG RMK QFE754/1006
Время наблюдения: 
2020-09-27T10:30:00Z
Температура C: 
17.0
Точка росы: 
4.0
Направление ветра: 
130
Скорость ветра (узлы): 
12
Метеорологическая видимость: 
6.21
Условия полета: 
VFR
Аэропорт подробнее: 

Найти трансфер

С помощью этой формы Вы можете найти трансфер из аэропорта Авиационная погода в Москве - Остафьево в город, аэропорт или вокзал: